createdAt,value
2017-07-26T00:01:20.231Z,3.00
2017-07-26T00:03:47.885Z,4.07
2017-07-26T00:06:15.550Z,3.30
2017-07-26T00:08:43.179Z,4.03
2017-07-26T00:11:10.812Z,3.87
2017-07-26T00:13:38.441Z,4.20
2017-07-26T00:16:06.117Z,4.10
2017-07-26T00:18:33.758Z,4.77
2017-07-26T00:21:01.422Z,4.30
2017-07-26T00:23:29.065Z,4.47
2017-07-26T00:25:56.743Z,4.87
2017-07-26T00:28:24.353Z,5.20
2017-07-26T00:30:52.233Z,5.13
2017-07-26T00:33:19.866Z,4.90
2017-07-26T00:35:47.498Z,5.10
2017-07-26T00:38:15.105Z,4.43
2017-07-26T00:40:42.768Z,4.30
2017-07-26T00:43:10.384Z,4.83
2017-07-26T00:45:38.023Z,4.50
2017-07-26T00:48:05.628Z,4.50
2017-07-26T00:50:33.260Z,4.30
2017-07-26T00:53:00.893Z,4.27
2017-07-26T00:55:28.757Z,3.60
2017-07-26T00:57:56.358Z,3.90
2017-07-26T01:00:23.986Z,4.00
2017-07-26T01:02:51.654Z,3.53
2017-07-26T01:05:19.239Z,3.17
2017-07-26T01:07:46.863Z,3.40
2017-07-26T01:10:14.560Z,3.13
2017-07-26T01:12:42.219Z,3.23
2017-07-26T01:15:09.822Z,3.23
2017-07-26T01:17:37.499Z,2.90
2017-07-26T01:20:05.130Z,2.40
2017-07-26T01:22:32.803Z,2.90
2017-07-26T01:25:00.449Z,3.10
2017-07-26T01:27:28.095Z,2.70
2017-07-26T01:29:55.751Z,2.47
2017-07-26T01:32:23.421Z,2.57
2017-07-26T01:34:51.047Z,2.50
2017-07-26T01:37:18.698Z,2.30
2017-07-26T01:39:46.476Z,2.27
2017-07-26T01:42:14.228Z,2.57
2017-07-26T01:44:41.853Z,1.93
2017-07-26T01:47:09.505Z,2.00
2017-07-26T01:49:37.158Z,2.40
2017-07-26T01:52:04.820Z,2.20
2017-07-26T01:54:32.466Z,2.10
2017-07-26T01:57:00.708Z,2.47
2017-07-26T01:59:28.372Z,2.53
2017-07-26T02:01:56.023Z,2.40
2017-07-26T02:04:23.726Z,1.87
2017-07-26T02:06:51.415Z,2.43
2017-07-26T02:09:19.048Z,2.30
2017-07-26T02:11:46.710Z,1.90
2017-07-26T02:14:14.347Z,2.27
2017-07-26T02:16:41.996Z,2.00
2017-07-26T02:19:09.638Z,2.00
2017-07-26T02:21:37.305Z,2.20
2017-07-26T02:24:04.943Z,1.73
2017-07-26T02:26:32.869Z,1.70
2017-07-26T02:29:00.533Z,1.60
2017-07-26T02:31:28.189Z,1.77
2017-07-26T02:33:55.863Z,1.70
2017-07-26T02:36:23.620Z,1.90
2017-07-26T02:38:51.251Z,1.90
2017-07-26T02:41:18.849Z,1.80
2017-07-26T02:43:46.535Z,1.40
2017-07-26T02:46:14.200Z,1.23
2017-07-26T02:48:41.990Z,1.37
2017-07-26T02:51:09.644Z,1.30
2017-07-26T02:53:37.322Z,1.27
2017-07-26T02:56:04.940Z,1.27
2017-07-26T02:58:32.588Z,1.33
2017-07-26T03:01:00.189Z,1.10
2017-07-26T03:03:27.836Z,1.23
2017-07-26T03:05:55.466Z,1.50
2017-07-26T03:08:23.097Z,1.50
2017-07-26T03:10:50.731Z,1.43
2017-07-26T03:13:18.415Z,1.40
2017-07-26T03:15:46.050Z,1.40
2017-07-26T03:18:13.681Z,1.60
2017-07-26T03:20:42.650Z,1.20
2017-07-26T03:23:10.315Z,1.30
2017-07-26T03:25:37.950Z,1.20
2017-07-26T03:28:05.585Z,1.23
2017-07-26T03:30:33.224Z,1.23
2017-07-26T03:33:00.865Z,1.10
2017-07-26T03:35:28.484Z,1.13
2017-07-26T03:37:56.135Z,1.30
2017-07-26T03:40:23.772Z,1.07
2017-07-26T03:42:51.389Z,1.30
2017-07-26T03:45:19.013Z,1.20
2017-07-26T03:47:46.654Z,1.03
2017-07-26T03:50:14.267Z,1.10
2017-07-26T03:52:41.898Z,1.10
2017-07-26T03:55:09.532Z,1.27
2017-07-26T03:57:37.693Z,1.13
2017-07-26T04:00:05.305Z,1.13
2017-07-26T04:02:32.964Z,1.30
2017-07-26T04:05:00.655Z,1.10
2017-07-26T04:07:28.282Z,1.00
2017-07-26T04:09:55.951Z,1.27
2017-07-26T04:12:23.598Z,1.40
2017-07-26T04:14:51.239Z,1.00
2017-07-26T04:17:18.856Z,1.07
2017-07-26T04:19:46.557Z,1.03
2017-07-26T04:22:14.191Z,1.00
2017-07-26T04:24:41.911Z,1.00
2017-07-26T04:27:09.529Z,1.23
2017-07-26T04:29:37.242Z,1.00
2017-07-26T04:32:04.884Z,1.00
2017-07-26T04:34:32.552Z,1.20
2017-07-26T04:37:00.271Z,1.20
2017-07-26T04:39:27.909Z,1.20
2017-07-26T04:41:55.543Z,1.10
2017-07-26T04:44:23.168Z,1.27
2017-07-26T04:46:50.778Z,1.43
2017-07-26T04:49:18.423Z,1.20
2017-07-26T04:51:46.268Z,1.10
2017-07-26T04:54:13.918Z,1.50
2017-07-26T04:56:41.541Z,1.00
2017-07-26T04:59:09.189Z,0.97
2017-07-26T05:01:36.873Z,1.03
2017-07-26T05:04:04.511Z,1.03
2017-07-26T05:06:32.148Z,1.00
2017-07-26T05:08:59.791Z,1.17
2017-07-26T05:11:27.466Z,1.30
2017-07-26T05:13:55.122Z,0.90
2017-07-26T05:16:22.756Z,1.00
2017-07-26T05:18:50.407Z,0.80
2017-07-26T05:21:18.119Z,0.80
2017-07-26T05:23:45.771Z,0.90
2017-07-26T05:26:13.401Z,0.90
2017-07-26T05:28:41.045Z,0.70
2017-07-26T05:31:08.748Z,1.00
2017-07-26T05:33:36.544Z,0.90
2017-07-26T05:36:04.171Z,0.90
2017-07-26T05:38:31.807Z,0.90
2017-07-26T05:40:59.884Z,0.90
2017-07-26T05:43:30.500Z,0.90
2017-07-26T05:45:58.165Z,0.90
2017-07-26T05:48:25.902Z,1.40
2017-07-26T05:50:53.556Z,0.80
2017-07-26T05:53:21.173Z,0.80
2017-07-26T05:55:48.842Z,0.90
2017-07-26T05:58:16.479Z,1.10
2017-07-26T06:00:44.148Z,0.70
2017-07-26T06:03:11.794Z,0.90
2017-07-26T06:05:40.248Z,0.73
2017-07-26T06:08:07.916Z,0.80
2017-07-26T06:10:35.596Z,0.80
2017-07-26T06:13:03.230Z,0.70
2017-07-26T06:15:30.904Z,0.90
2017-07-26T06:17:58.644Z,0.83
2017-07-26T06:20:26.297Z,1.10
2017-07-26T06:22:53.915Z,1.03
2017-07-26T06:25:21.584Z,1.90
2017-07-26T06:27:49.259Z,1.47
2017-07-26T06:30:17.094Z,1.30
2017-07-26T06:32:44.769Z,0.90
2017-07-26T06:35:12.419Z,1.00
2017-07-26T06:37:40.059Z,0.80
2017-07-26T06:40:08.924Z,1.10
2017-07-26T06:42:36.586Z,1.20
2017-07-26T06:45:04.457Z,0.90
2017-07-26T06:47:32.091Z,0.87
2017-07-26T06:49:59.746Z,0.80
2017-07-26T06:52:27.409Z,0.80
2017-07-26T06:54:55.107Z,1.33
2017-07-26T06:57:22.743Z,1.10
2017-07-26T06:59:50.407Z,1.00
2017-07-26T07:02:18.123Z,0.90
2017-07-26T07:04:45.779Z,0.90
2017-07-26T07:07:13.428Z,0.80
2017-07-26T07:09:41.096Z,0.80
2017-07-26T07:12:08.734Z,0.90
2017-07-26T07:14:36.371Z,1.00
2017-07-26T07:17:04.011Z,1.00
2017-07-26T07:19:31.638Z,1.20
2017-07-26T07:21:59.390Z,1.10
2017-07-26T07:24:27.108Z,0.90
2017-07-26T07:26:54.779Z,0.90
2017-07-26T07:29:22.417Z,0.97
2017-07-26T07:31:50.050Z,1.03
2017-07-26T07:34:17.701Z,1.03
2017-07-26T07:36:45.385Z,1.10
2017-07-26T07:39:13.016Z,1.00
2017-07-26T07:41:40.663Z,1.10
2017-07-26T07:44:08.308Z,1.83
2017-07-26T07:46:35.978Z,1.37
2017-07-26T07:49:03.636Z,1.80
2017-07-26T07:51:31.299Z,1.37
2017-07-26T07:53:58.945Z,1.50
2017-07-26T07:56:26.614Z,1.53
2017-07-26T07:58:54.572Z,1.80
2017-07-26T08:01:22.243Z,1.83
2017-07-26T08:03:49.874Z,1.50
2017-07-26T08:06:17.551Z,2.00
2017-07-26T08:08:45.192Z,1.70
2017-07-26T08:11:12.869Z,2.17
2017-07-26T08:13:40.508Z,1.83
2017-07-26T08:16:08.171Z,2.17
2017-07-26T08:18:35.824Z,1.60
2017-07-26T08:21:03.483Z,1.60
2017-07-26T08:23:31.107Z,1.83
2017-07-26T08:25:59.105Z,1.70
2017-07-26T08:28:26.714Z,2.10
2017-07-26T08:30:54.469Z,2.00
2017-07-26T08:33:23.545Z,2.00
2017-07-26T08:35:51.190Z,1.90
2017-07-26T08:38:18.918Z,2.07
2017-07-26T08:40:47.522Z,1.93
2017-07-26T08:43:15.332Z,2.33
2017-07-26T08:45:43.607Z,2.10
2017-07-26T08:48:11.257Z,1.90
2017-07-26T08:50:38.906Z,1.93
2017-07-26T08:53:06.620Z,2.17
2017-07-26T08:55:34.279Z,2.30
2017-07-26T08:58:03.321Z,2.63
2017-07-26T09:00:30.947Z,2.60
2017-07-26T09:02:58.635Z,2.67
2017-07-26T09:05:26.269Z,2.23
2017-07-26T09:07:53.909Z,2.43
2017-07-26T09:10:21.552Z,2.40
2017-07-26T09:12:49.567Z,2.40
2017-07-26T09:15:18.572Z,2.77
2017-07-26T09:17:46.227Z,2.50
2017-07-26T09:20:16.486Z,2.10
2017-07-26T09:22:44.581Z,2.03
2017-07-26T09:25:12.427Z,2.50
2017-07-26T09:27:40.211Z,2.50
2017-07-26T09:30:07.863Z,3.00
2017-07-26T09:32:36.997Z,2.53
2017-07-26T09:35:04.663Z,3.23
2017-07-26T09:37:32.383Z,2.67
2017-07-26T09:40:00.027Z,3.03
2017-07-26T09:42:27.677Z,2.60
2017-07-26T09:44:55.304Z,2.50
2017-07-26T09:47:22.970Z,2.80
2017-07-26T09:49:50.615Z,2.20
2017-07-26T09:52:18.848Z,2.50
2017-07-26T09:54:47.099Z,3.13
2017-07-26T09:57:14.721Z,2.43
2017-07-26T09:59:42.577Z,2.67
2017-07-26T10:02:10.601Z,2.40
2017-07-26T10:04:38.325Z,2.60
2017-07-26T10:07:05.954Z,2.60
2017-07-26T10:09:33.595Z,2.17
2017-07-26T10:12:01.219Z,2.40
2017-07-26T10:14:28.905Z,2.40
2017-07-26T10:16:56.515Z,2.60
2017-07-26T10:19:24.408Z,2.53
2017-07-26T10:21:52.044Z,2.60
2017-07-26T10:24:19.708Z,2.10
2017-07-26T10:26:47.322Z,2.57
2017-07-26T10:29:14.970Z,2.43
2017-07-26T10:31:42.637Z,2.20
2017-07-26T10:34:10.411Z,2.53
2017-07-26T10:36:38.032Z,2.50
2017-07-26T10:39:05.709Z,2.83
2017-07-26T10:41:33.329Z,2.50
2017-07-26T10:44:01.024Z,2.97
2017-07-26T10:46:28.683Z,3.17
2017-07-26T10:48:56.815Z,3.40
2017-07-26T10:51:24.444Z,2.73
2017-07-26T10:53:52.115Z,3.10
2017-07-26T10:56:19.838Z,3.30
2017-07-26T10:58:47.508Z,3.83
2017-07-26T11:01:15.153Z,3.63
2017-07-26T11:03:42.788Z,3.70
2017-07-26T11:06:10.631Z,3.30
2017-07-26T11:08:38.288Z,3.10
2017-07-26T11:11:05.919Z,3.30
2017-07-26T11:13:33.586Z,3.10
2017-07-26T11:16:01.362Z,3.67
2017-07-26T11:18:29.048Z,4.10
2017-07-26T11:20:56.684Z,2.80
2017-07-26T11:23:24.466Z,2.90
2017-07-26T11:25:52.108Z,3.47
2017-07-26T11:28:19.765Z,3.80
2017-07-26T11:30:47.415Z,3.13
2017-07-26T11:33:15.360Z,3.10
2017-07-26T11:35:43.045Z,3.50
2017-07-26T11:38:10.671Z,2.40
2017-07-26T11:40:38.367Z,2.70
2017-07-26T11:43:06.027Z,2.70
2017-07-26T11:45:33.679Z,2.40
2017-07-26T11:48:01.335Z,2.80
2017-07-26T11:50:28.983Z,2.67
2017-07-26T11:52:56.629Z,3.53
2017-07-26T11:55:24.367Z,3.00
2017-07-26T11:57:52.010Z,2.80
2017-07-26T12:00:19.663Z,2.63
2017-07-26T12:02:47.303Z,2.20
2017-07-26T12:05:14.943Z,2.27
2017-07-26T12:07:42.659Z,2.80
2017-07-26T12:10:10.387Z,2.50
2017-07-26T12:12:38.026Z,3.60
2017-07-26T12:15:05.671Z,2.57
2017-07-26T12:17:34.060Z,2.47
2017-07-26T12:20:01.767Z,1.80
2017-07-26T12:22:29.410Z,2.10
2017-07-26T12:24:57.059Z,2.17
2017-07-26T12:27:24.675Z,1.90
2017-07-26T12:29:52.402Z,1.70
2017-07-26T12:32:19.990Z,1.97
2017-07-26T12:34:47.626Z,1.73
2017-07-26T12:37:15.261Z,1.20
2017-07-26T12:39:42.932Z,1.57
2017-07-26T12:42:10.905Z,2.00
2017-07-26T12:44:38.555Z,2.00
2017-07-26T12:47:06.194Z,1.90
2017-07-26T12:49:33.927Z,1.87
2017-07-26T12:52:01.551Z,1.50
2017-07-26T12:54:29.200Z,1.60
2017-07-26T12:56:56.938Z,1.30
2017-07-26T12:59:24.603Z,1.50
2017-07-26T13:01:52.256Z,1.40
2017-07-26T13:04:19.899Z,1.70
2017-07-26T13:06:47.562Z,1.60
2017-07-26T13:09:15.339Z,1.60
2017-07-26T13:11:43.012Z,1.53
2017-07-26T13:14:10.640Z,1.20
2017-07-26T13:16:38.280Z,1.70
2017-07-26T13:19:05.923Z,1.90
2017-07-26T13:21:33.574Z,1.77
2017-07-26T13:24:01.222Z,1.57
2017-07-26T13:26:28.899Z,1.40
2017-07-26T13:28:56.512Z,1.50
2017-07-26T13:31:24.205Z,1.33
2017-07-26T13:33:52.609Z,1.30
2017-07-26T13:36:20.329Z,1.30
2017-07-26T13:38:48.092Z,1.27
2017-07-26T13:41:15.762Z,1.73
2017-07-26T13:43:43.435Z,1.33
2017-07-26T13:46:11.113Z,1.50
2017-07-26T13:48:39.747Z,1.30
2017-07-26T13:51:07.448Z,1.40
2017-07-26T13:53:35.107Z,1.50
2017-07-26T13:56:02.761Z,1.20
2017-07-26T13:58:30.410Z,1.30
2017-07-26T14:00:58.044Z,1.20
2017-07-26T14:03:25.722Z,1.40
2017-07-26T14:05:53.384Z,1.30
2017-07-26T14:08:21.111Z,1.30
2017-07-26T14:10:48.772Z,1.93
2017-07-26T14:13:16.433Z,1.63
2017-07-26T14:15:44.090Z,1.40
2017-07-26T14:18:11.732Z,1.60
2017-07-26T14:20:39.410Z,1.93
2017-07-26T14:23:07.097Z,1.53
2017-07-26T14:25:34.752Z,1.97
2017-07-26T14:28:02.433Z,1.60
2017-07-26T14:30:30.073Z,1.80
2017-07-26T14:32:57.747Z,2.00
2017-07-26T14:35:25.361Z,2.03
2017-07-26T14:37:53.019Z,1.80
2017-07-26T14:40:20.653Z,2.00
2017-07-26T14:42:48.919Z,2.00
2017-07-26T14:45:16.545Z,2.00
2017-07-26T14:47:44.182Z,2.63
2017-07-26T14:50:11.819Z,2.30
2017-07-26T14:52:39.498Z,2.60
2017-07-26T14:55:08.645Z,3.30
2017-07-26T14:57:36.354Z,3.17
2017-07-26T15:00:03.981Z,3.10
2017-07-26T15:02:32.294Z,4.37
2017-07-26T15:04:59.951Z,3.53
2017-07-26T15:07:27.855Z,4.00
2017-07-26T15:09:55.635Z,3.63
2017-07-26T15:12:23.377Z,4.10
2017-07-26T15:14:51.077Z,4.40
2017-07-26T15:17:18.766Z,4.10
2017-07-26T15:19:46.385Z,5.10
2017-07-26T15:22:14.034Z,4.57
2017-07-26T15:24:42.410Z,4.97
2017-07-26T15:27:10.077Z,4.80
2017-07-26T15:29:37.707Z,4.70
2017-07-26T15:32:05.374Z,5.30
2017-07-26T15:34:33.137Z,5.20
2017-07-26T15:37:00.797Z,4.97
2017-07-26T15:39:28.533Z,4.97
2017-07-26T15:41:56.208Z,4.90
2017-07-26T15:44:23.853Z,4.67
2017-07-26T15:46:52.209Z,4.50
2017-07-26T15:49:20.272Z,5.17
2017-07-26T15:51:47.919Z,5.30
2017-07-26T15:54:15.587Z,5.20
2017-07-26T15:56:43.311Z,5.20
2017-07-26T15:59:10.995Z,5.37
2017-07-26T16:01:38.694Z,4.50
2017-07-26T16:04:06.529Z,4.90
2017-07-26T16:06:34.249Z,5.50
2017-07-26T16:09:01.954Z,5.03
2017-07-26T16:11:29.610Z,6.07
2017-07-26T16:13:57.231Z,6.17
2017-07-26T16:16:24.871Z,7.40
2017-07-26T16:18:52.559Z,9.30
2017-07-26T16:21:20.186Z,7.30
2017-07-26T16:23:47.814Z,6.73
2017-07-26T16:26:15.444Z,7.00
2017-07-26T16:28:43.097Z,7.37
2017-07-26T16:31:10.721Z,7.00
2017-07-26T16:33:38.426Z,7.07
2017-07-26T16:36:06.089Z,7.10
2017-07-26T16:38:33.778Z,7.13
2017-07-26T16:41:01.508Z,7.50
2017-07-26T16:43:29.167Z,6.47
2017-07-26T16:45:56.828Z,6.07
2017-07-26T16:48:24.494Z,6.20
2017-07-26T16:50:52.160Z,6.20
2017-07-26T16:53:19.923Z,6.70
2017-07-26T16:55:47.580Z,6.37
2017-07-26T16:58:15.230Z,6.30
2017-07-26T17:00:42.866Z,6.17
2017-07-26T17:03:10.549Z,6.43
2017-07-26T17:05:38.182Z,6.20
2017-07-26T17:08:05.851Z,6.37
2017-07-26T17:10:33.518Z,6.47
2017-07-26T17:13:01.179Z,6.60
2017-07-26T17:15:28.881Z,6.57
2017-07-26T17:17:56.736Z,7.17
2017-07-26T17:20:24.378Z,6.47
2017-07-26T17:22:53.514Z,7.30
2017-07-26T17:25:22.466Z,7.00
2017-07-26T17:27:50.211Z,7.10
2017-07-26T17:30:17.854Z,6.97
2017-07-26T17:32:45.516Z,6.00
2017-07-26T17:35:13.157Z,6.17
2017-07-26T17:37:40.852Z,6.80
2017-07-26T17:40:08.536Z,7.47
2017-07-26T17:42:36.156Z,6.70
2017-07-26T17:45:04.367Z,7.53
2017-07-26T17:47:32.006Z,7.00
2017-07-26T17:49:59.815Z,7.40
2017-07-26T17:52:27.438Z,7.00
2017-07-26T17:54:55.239Z,7.30
2017-07-26T17:57:22.853Z,7.70
2017-07-26T17:59:50.490Z,8.23
2017-07-26T18:02:18.123Z,7.57
2017-07-26T18:04:45.820Z,6.80
2017-07-26T18:07:13.447Z,7.50
2017-07-26T18:09:41.246Z,8.80
2017-07-26T18:12:09.549Z,8.20
2017-07-26T18:14:37.961Z,8.30
2017-07-26T18:17:05.599Z,8.20
2017-07-26T18:19:33.276Z,8.90
2017-07-26T18:22:01.647Z,7.57
2017-07-26T18:24:29.315Z,9.00
2017-07-26T18:26:56.944Z,8.33
2017-07-26T18:29:26.006Z,9.20
2017-07-26T18:31:53.634Z,9.30
2017-07-26T18:34:21.308Z,9.47
2017-07-26T18:36:48.961Z,8.50
2017-07-26T18:39:16.647Z,9.70
2017-07-26T18:41:44.289Z,9.20
2017-07-26T18:44:11.978Z,8.20
2017-07-26T18:46:39.655Z,8.03
2017-07-26T18:49:07.345Z,8.90
2017-07-26T18:51:35.015Z,8.53
2017-07-26T18:54:02.681Z,7.83
2017-07-26T18:56:30.343Z,7.53
2017-07-26T18:58:58.375Z,7.73
2017-07-26T19:01:26.095Z,6.53
2017-07-26T19:03:53.743Z,6.50
2017-07-26T19:06:21.392Z,6.80
2017-07-26T19:08:49.033Z,7.80
2017-07-26T19:11:16.708Z,7.80
2017-07-26T19:13:44.497Z,7.73
2017-07-26T19:16:12.185Z,7.90
2017-07-26T19:18:39.950Z,7.90
2017-07-26T19:21:07.697Z,7.37
2017-07-26T19:23:35.336Z,7.50
2017-07-26T19:26:02.993Z,7.90
2017-07-26T19:28:31.097Z,7.60
2017-07-26T19:30:58.776Z,8.07
2017-07-26T19:33:26.472Z,7.60
2017-07-26T19:35:54.305Z,7.77
2017-07-26T19:38:21.945Z,9.30
2017-07-26T19:40:49.823Z,8.70
2017-07-26T19:43:18.495Z,8.47
2017-07-26T19:45:46.246Z,7.53
2017-07-26T19:48:13.897Z,8.37
2017-07-26T19:50:41.567Z,8.07
2017-07-26T19:53:09.389Z,6.83
2017-07-26T19:55:37.096Z,8.57
2017-07-26T19:58:04.747Z,8.60
2017-07-26T20:00:32.478Z,7.50
2017-07-26T20:03:00.104Z,7.60
2017-07-26T20:05:27.961Z,7.73
2017-07-26T20:07:55.588Z,7.57
2017-07-26T20:10:23.583Z,8.00
2017-07-26T20:12:51.299Z,8.20
2017-07-26T20:15:18.980Z,8.60
2017-07-26T20:17:46.623Z,8.10
2017-07-26T20:20:14.244Z,7.80
2017-07-26T20:22:42.049Z,7.13
2017-07-26T20:25:09.735Z,7.57
2017-07-26T20:27:37.830Z,8.00
2017-07-26T20:30:05.581Z,7.80
2017-07-26T20:32:33.289Z,9.77
2017-07-26T20:35:01.840Z,8.50
2017-07-26T20:37:29.491Z,9.53
2017-07-26T20:39:57.181Z,8.30
2017-07-26T20:42:24.822Z,8.80
2017-07-26T20:44:52.761Z,8.00
2017-07-26T20:47:20.485Z,7.70
2017-07-26T20:49:48.120Z,9.30
2017-07-26T20:52:15.780Z,8.30
2017-07-26T20:54:43.431Z,8.40
2017-07-26T20:57:11.076Z,8.10
2017-07-26T20:59:38.704Z,8.90
2017-07-26T21:02:06.765Z,8.50
2017-07-26T21:04:34.397Z,8.30
2017-07-26T21:07:02.035Z,7.20
2017-07-26T21:09:29.697Z,7.17
2017-07-26T21:11:57.348Z,7.37
2017-07-26T21:14:25.515Z,7.20
2017-07-26T21:16:53.247Z,6.93
2017-07-26T21:19:20.864Z,6.50
2017-07-26T21:21:49.263Z,6.47
2017-07-26T21:24:17.537Z,6.40
2017-07-26T21:26:45.268Z,7.17
2017-07-26T21:29:12.896Z,6.30
2017-07-26T21:31:40.877Z,6.50
2017-07-26T21:34:08.550Z,7.30
2017-07-26T21:36:36.197Z,7.07
2017-07-26T21:39:03.842Z,7.57
2017-07-26T21:41:31.621Z,7.70
2017-07-26T21:43:59.280Z,7.03
2017-07-26T21:46:26.939Z,7.30
2017-07-26T21:48:54.779Z,7.63
2017-07-26T21:51:23.154Z,7.40
2017-07-26T21:53:50.773Z,7.33
2017-07-26T21:56:18.570Z,6.97
2017-07-26T21:58:46.197Z,7.27
2017-07-26T22:01:13.830Z,7.40
2017-07-26T22:03:41.483Z,7.60
2017-07-26T22:06:09.089Z,7.30
2017-07-26T22:08:37.104Z,7.03
2017-07-26T22:11:04.755Z,7.20
2017-07-26T22:13:32.370Z,5.83
2017-07-26T22:16:00.028Z,7.03
2017-07-26T22:18:27.708Z,7.20
2017-07-26T22:20:55.727Z,7.47
2017-07-26T22:23:23.366Z,7.27
2017-07-26T22:25:51.341Z,7.80
2017-07-26T22:28:18.981Z,7.30
2017-07-26T22:30:46.599Z,7.13
2017-07-26T22:33:14.284Z,6.93
2017-07-26T22:35:41.917Z,7.73
2017-07-26T22:38:09.567Z,6.90
2017-07-26T22:40:37.359Z,7.33
2017-07-26T22:43:05.289Z,7.13
2017-07-26T22:45:32.947Z,6.57
2017-07-26T22:48:00.581Z,6.10
2017-07-26T22:50:28.213Z,6.20
2017-07-26T22:52:55.822Z,6.67
2017-07-26T22:55:23.485Z,6.40
2017-07-26T22:57:51.096Z,6.97
2017-07-26T23:00:19.022Z,6.80
2017-07-26T23:02:46.659Z,6.60
2017-07-26T23:05:14.281Z,7.30
2017-07-26T23:07:42.042Z,6.87
2017-07-26T23:10:09.737Z,8.20
2017-07-26T23:12:37.397Z,7.70
2017-07-26T23:15:05.044Z,8.20
2017-07-26T23:17:33.102Z,7.70
2017-07-26T23:20:00.734Z,8.60
2017-07-26T23:22:28.366Z,7.57
2017-07-26T23:24:56.081Z,8.30
2017-07-26T23:27:26.717Z,8.30
2017-07-26T23:29:54.394Z,7.70
2017-07-26T23:32:22.050Z,8.20
2017-07-26T23:34:50.081Z,8.47
2017-07-26T23:37:17.725Z,8.00
2017-07-26T23:39:45.348Z,8.63
2017-07-26T23:42:13.010Z,9.20
2017-07-26T23:44:40.645Z,8.50
2017-07-26T23:47:08.285Z,7.93
2017-07-26T23:49:35.919Z,8.97
2017-07-26T23:52:03.824Z,9.07
2017-07-26T23:54:31.473Z,8.60
2017-07-26T23:56:59.131Z,9.10
2017-07-26T23:59:26.783Z,9.33
